createdAt,value
2018-09-10T00:01:50.301Z,5.70
2018-09-10T00:04:18.604Z,4.93
2018-09-10T00:06:46.889Z,10.53
2018-09-10T00:09:15.306Z,3.00
2018-09-10T00:11:43.589Z,3.27
2018-09-10T00:14:11.894Z,3.40
2018-09-10T00:16:40.234Z,2.57
2018-09-10T00:19:08.550Z,2.87
2018-09-10T00:21:36.865Z,5.20
2018-09-10T00:24:05.155Z,2.43
2018-09-10T00:26:33.454Z,5.60
2018-09-10T00:29:03.469Z,3.37
2018-09-10T00:31:31.734Z,4.80
2018-09-10T00:34:00.074Z,4.63
2018-09-10T00:36:28.374Z,5.73
2018-09-10T00:38:56.665Z,3.63
2018-09-10T00:41:24.957Z,2.90
2018-09-10T00:43:53.244Z,4.50
2018-09-10T00:46:21.533Z,2.90
2018-09-10T00:48:49.808Z,6.23
2018-09-10T00:51:18.208Z,2.80
2018-09-10T00:53:46.494Z,4.40
2018-09-10T00:56:14.825Z,4.83
2018-09-10T00:58:43.140Z,3.20
2018-09-10T01:01:11.514Z,4.50
2018-09-10T01:03:39.770Z,4.13
2018-09-10T01:06:08.056Z,3.57
2018-09-10T01:08:36.325Z,3.93
2018-09-10T01:11:04.616Z,5.57
2018-09-10T01:13:32.919Z,5.20
2018-09-10T01:16:01.278Z,2.70
2018-09-10T01:18:29.560Z,2.87
2018-09-10T01:20:58.007Z,3.77
2018-09-10T01:23:26.359Z,3.03
2018-09-10T01:25:54.680Z,4.63
2018-09-10T01:28:23.009Z,3.40
2018-09-10T01:30:51.692Z,4.23
2018-09-10T01:33:25.290Z,2.80
2018-09-10T01:35:53.598Z,2.90
2018-09-10T01:38:21.900Z,3.03
2018-09-10T01:40:50.204Z,3.50
2018-09-10T01:43:18.530Z,4.60
2018-09-10T01:45:46.840Z,3.77
2018-09-10T01:48:15.178Z,2.70
2018-09-10T01:50:43.462Z,6.20
2018-09-10T01:53:11.761Z,2.57
2018-09-10T01:55:40.090Z,2.70
2018-09-10T01:58:08.388Z,3.80
2018-09-10T02:00:36.736Z,2.80
2018-09-10T02:03:05.238Z,2.60
2018-09-10T02:05:33.595Z,2.90
2018-09-10T02:08:03.154Z,2.67
2018-09-10T02:10:31.464Z,2.70
2018-09-10T02:12:59.755Z,3.90
2018-09-10T02:15:28.093Z,4.30
2018-09-10T02:17:56.465Z,3.10
2018-09-10T02:20:24.803Z,3.80
2018-09-10T02:22:53.047Z,3.10
2018-09-10T02:25:21.339Z,3.87
2018-09-10T02:27:49.664Z,3.40
2018-09-10T02:30:17.933Z,3.67
2018-09-10T02:32:46.231Z,4.10
2018-09-10T02:35:14.529Z,4.50
2018-09-10T02:37:42.797Z,5.57
2018-09-10T02:40:11.120Z,3.93
2018-09-10T02:42:39.429Z,5.60
2018-09-10T02:45:07.761Z,2.90
2018-09-10T02:47:36.069Z,2.53
2018-09-10T02:50:04.457Z,3.70
2018-09-10T02:52:32.793Z,6.50
2018-09-10T02:55:01.115Z,4.90
2018-09-10T02:57:29.391Z,3.87
2018-09-10T02:59:57.665Z,2.77
2018-09-10T03:02:25.966Z,3.40
2018-09-10T03:04:54.256Z,4.37
2018-09-10T03:07:22.558Z,2.73
2018-09-10T03:09:50.927Z,5.50
2018-09-10T03:12:19.222Z,2.50
2018-09-10T03:14:47.528Z,3.80
2018-09-10T03:17:16.878Z,2.87
2018-09-10T03:19:45.180Z,4.07
2018-09-10T03:22:13.493Z,3.30
2018-09-10T03:24:41.766Z,3.70
2018-09-10T03:27:10.082Z,5.60
2018-09-10T03:29:38.364Z,4.20
2018-09-10T03:32:06.849Z,4.50
2018-09-10T03:34:35.180Z,4.57
2018-09-10T03:37:03.508Z,3.43
2018-09-10T03:39:31.812Z,2.63
2018-09-10T03:42:00.262Z,7.40
2018-09-10T03:44:28.580Z,5.77
2018-09-10T03:46:56.892Z,2.87
2018-09-10T03:49:25.205Z,3.80
2018-09-10T03:51:53.671Z,3.20
2018-09-10T03:54:22.120Z,5.57
2018-09-10T03:56:50.422Z,3.80
2018-09-10T03:59:18.702Z,4.10
2018-09-10T04:01:47.014Z,2.83
2018-09-10T04:04:15.308Z,4.60
2018-09-10T04:06:43.745Z,2.63
2018-09-10T04:09:12.054Z,4.23
2018-09-10T04:11:40.333Z,2.77
2018-09-10T04:14:08.629Z,4.17
2018-09-10T04:16:36.902Z,4.97
2018-09-10T04:19:05.252Z,4.40
2018-09-10T04:21:33.542Z,4.30
2018-09-10T04:24:01.819Z,8.03
2018-09-10T04:26:30.100Z,4.30
2018-09-10T04:28:58.428Z,3.30
2018-09-10T04:31:26.730Z,4.20
2018-09-10T04:33:55.040Z,6.57
2018-09-10T04:36:23.295Z,5.57
2018-09-10T04:38:51.591Z,8.50
2018-09-10T04:41:19.898Z,5.57
2018-09-10T04:43:48.224Z,6.20
2018-09-10T04:46:16.502Z,2.83
2018-09-10T04:48:44.794Z,5.13
2018-09-10T04:51:13.089Z,2.77
2018-09-10T04:53:41.416Z,3.97
2018-09-10T04:56:09.760Z,4.40
2018-09-10T04:58:38.073Z,3.63
2018-09-10T05:01:06.565Z,3.63
2018-09-10T05:03:36.396Z,3.73
2018-09-10T05:06:04.681Z,3.13
2018-09-10T05:08:32.957Z,3.83
2018-09-10T05:11:01.248Z,7.33
2018-09-10T05:13:29.563Z,4.07
2018-09-10T05:15:57.881Z,4.13
2018-09-10T05:18:26.195Z,5.07
2018-09-10T05:20:54.487Z,4.20
2018-09-10T05:23:22.789Z,3.70
2018-09-10T05:25:51.164Z,4.20
2018-09-10T05:28:19.529Z,4.40
2018-09-10T05:30:47.883Z,3.27
2018-09-10T05:33:16.193Z,5.60
2018-09-10T05:35:44.485Z,5.50
2018-09-10T05:38:12.917Z,4.47
2018-09-10T05:40:41.205Z,12.40
2018-09-10T05:43:09.569Z,4.90
2018-09-10T05:45:37.915Z,5.50
2018-09-10T05:48:06.202Z,5.80
2018-09-10T05:50:34.571Z,5.80
2018-09-10T05:53:02.856Z,7.23
2018-09-10T05:55:31.276Z,5.73
2018-09-10T05:57:59.539Z,6.53
2018-09-10T06:00:27.845Z,8.47
2018-09-10T06:02:56.701Z,5.43
2018-09-10T06:05:25.007Z,4.70
2018-09-10T06:07:53.447Z,6.70
2018-09-10T06:10:21.793Z,10.60
2018-09-10T06:12:50.038Z,6.67
2018-09-10T06:15:18.388Z,8.33
2018-09-10T06:17:46.771Z,6.07
2018-09-10T06:20:15.062Z,8.67
2018-09-10T06:22:43.345Z,5.97
2018-09-10T06:25:11.632Z,10.97
2018-09-10T06:27:39.910Z,6.77
2018-09-10T06:30:08.316Z,4.40
2018-09-10T06:32:36.557Z,5.63
2018-09-10T06:35:04.948Z,4.63
2018-09-10T06:37:33.236Z,4.97
2018-09-10T06:40:01.510Z,4.40
2018-09-10T06:42:29.777Z,4.10
2018-09-10T06:44:58.061Z,5.90
2018-09-10T06:47:26.364Z,4.63
2018-09-10T06:49:54.810Z,4.07
2018-09-10T06:52:23.154Z,5.53
2018-09-10T06:54:51.447Z,4.50
2018-09-10T06:57:19.757Z,7.90
2018-09-10T06:59:48.062Z,10.57
2018-09-10T07:02:16.372Z,6.40
2018-09-10T07:04:44.662Z,4.30
2018-09-10T07:07:12.954Z,5.20
2018-09-10T07:09:41.270Z,5.13
2018-09-10T07:12:09.583Z,4.87
2018-09-10T07:14:37.856Z,7.70
2018-09-10T07:17:06.167Z,6.17
2018-09-10T07:19:34.442Z,7.67
2018-09-10T07:22:02.714Z,9.87
2018-09-10T07:24:31.126Z,8.73
2018-09-10T07:26:59.429Z,6.67
2018-09-10T07:29:27.951Z,6.07
2018-09-10T07:31:56.214Z,5.83
2018-09-10T07:34:24.566Z,7.60
2018-09-10T07:36:52.819Z,6.80
2018-09-10T07:39:21.134Z,8.43
2018-09-10T07:41:49.417Z,8.50
2018-09-10T07:44:17.783Z,10.93
2018-09-10T07:46:46.053Z,7.97
2018-09-10T07:49:14.456Z,9.20
2018-09-10T07:51:42.767Z,7.60
2018-09-10T07:54:11.022Z,9.10
2018-09-10T07:56:39.314Z,11.63
2018-09-10T07:59:07.684Z,10.43
2018-09-10T08:01:36.000Z,8.20
2018-09-10T08:04:04.415Z,12.70
2018-09-10T08:06:32.678Z,13.63
2018-09-10T08:09:00.957Z,11.13
2018-09-10T08:11:29.244Z,12.57
2018-09-10T08:13:57.616Z,13.67
2018-09-10T08:16:25.925Z,9.13
2018-09-10T08:18:54.322Z,8.87
2018-09-10T08:21:22.659Z,9.20
2018-09-10T08:23:50.935Z,8.67
2018-09-10T08:26:19.276Z,13.57
2018-09-10T08:28:47.560Z,8.43
2018-09-10T08:31:15.860Z,13.13
2018-09-10T08:33:44.201Z,12.50
2018-09-10T08:36:12.512Z,15.03
2018-09-10T08:38:40.820Z,12.10
2018-09-10T08:41:09.142Z,10.80
2018-09-10T08:43:37.468Z,15.03
2018-09-10T08:46:05.743Z,12.90
2018-09-10T08:48:34.030Z,14.20
2018-09-10T08:51:02.394Z,14.27
2018-09-10T08:53:30.674Z,11.27
2018-09-10T08:55:59.208Z,12.47
2018-09-10T08:58:27.374Z,10.87
2018-09-10T09:00:55.772Z,8.37
2018-09-10T09:03:24.146Z,8.87
2018-09-10T09:05:52.496Z,8.50
2018-09-10T09:08:20.743Z,12.80
2018-09-10T09:10:49.029Z,9.40
2018-09-10T09:13:17.349Z,11.20
2018-09-10T09:15:45.707Z,10.20
2018-09-10T09:18:14.043Z,12.30
2018-09-10T09:20:42.327Z,13.60
2018-09-10T09:23:10.787Z,11.07
2018-09-10T09:25:39.031Z,8.43
2018-09-10T09:28:07.465Z,9.50
2018-09-10T09:30:35.790Z,13.17
2018-09-10T09:33:04.072Z,9.53
2018-09-10T09:35:37.673Z,11.97
2018-09-10T09:38:11.495Z,10.73
2018-09-10T09:40:45.260Z,9.27
2018-09-10T09:43:19.017Z,10.80
2018-09-10T09:45:52.579Z,8.60
2018-09-10T09:48:20.912Z,8.73
2018-09-10T09:50:49.221Z,9.60
2018-09-10T09:53:17.675Z,11.20
2018-09-10T09:55:46.009Z,9.70
2018-09-10T09:58:14.286Z,10.57
2018-09-10T10:00:47.970Z,10.30
2018-09-10T10:03:18.511Z,9.47
2018-09-10T10:05:46.825Z,10.40
2018-09-10T10:08:15.132Z,10.23
2018-09-10T10:10:43.442Z,5.70
2018-09-10T10:13:11.720Z,9.33
2018-09-10T10:15:39.996Z,9.30
2018-09-10T10:18:08.349Z,11.00
2018-09-10T10:20:36.653Z,9.23
2018-09-10T10:23:05.002Z,10.20
2018-09-10T10:25:33.417Z,7.70
2018-09-10T10:28:01.738Z,8.90
2018-09-10T10:30:29.980Z,9.83
2018-09-10T10:32:58.336Z,11.10
2018-09-10T10:35:26.743Z,8.93
2018-09-10T10:37:55.055Z,9.70
2018-09-10T10:40:23.345Z,9.10
2018-09-10T10:42:51.649Z,10.07
2018-09-10T10:45:19.940Z,10.53
2018-09-10T10:47:48.260Z,10.83
2018-09-10T10:50:16.735Z,8.10
2018-09-10T10:52:45.055Z,10.00
2018-09-10T10:55:13.396Z,7.87
2018-09-10T10:57:42.086Z,9.13
2018-09-10T11:00:10.514Z,6.70
2018-09-10T11:02:38.796Z,7.77
2018-09-10T11:05:07.424Z,10.87
2018-09-10T11:07:35.751Z,7.60
2018-09-10T11:10:04.436Z,9.23
2018-09-10T11:12:32.760Z,11.10
2018-09-10T11:15:01.077Z,11.57
2018-09-10T11:17:29.412Z,10.33
2018-09-10T11:19:57.792Z,13.43
2018-09-10T11:22:26.310Z,18.53
2018-09-10T11:24:54.603Z,11.00
2018-09-10T11:27:23.012Z,14.40
2018-09-10T11:29:51.271Z,15.33
2018-09-10T11:32:19.733Z,13.87
2018-09-10T11:34:48.066Z,14.37
2018-09-10T11:37:16.375Z,13.90
2018-09-10T11:39:44.761Z,10.40
2018-09-10T11:42:13.029Z,14.50
2018-09-10T11:44:41.305Z,12.00
2018-09-10T11:47:09.647Z,12.80
2018-09-10T11:49:37.959Z,11.30
2018-09-10T11:52:06.373Z,12.60
2018-09-10T11:54:34.673Z,9.47
2018-09-10T11:57:03.161Z,13.37
2018-09-10T11:59:31.441Z,14.67
2018-09-10T12:01:59.791Z,9.47
2018-09-10T12:04:28.052Z,15.57
2018-09-10T12:06:56.471Z,11.90
2018-09-10T12:09:24.929Z,12.37
2018-09-10T12:11:53.180Z,9.23
2018-09-10T12:14:21.565Z,10.77
2018-09-10T12:16:51.600Z,8.57
2018-09-10T12:19:19.896Z,9.93
2018-09-10T12:21:48.171Z,13.33
2018-09-10T12:24:16.493Z,10.80
2018-09-10T12:26:44.834Z,12.33
2018-09-10T12:29:13.074Z,11.67
2018-09-10T12:31:41.535Z,8.63
2018-09-10T12:34:09.788Z,9.53
2018-09-10T12:36:38.176Z,11.90
2018-09-10T12:39:09.000Z,8.10
2018-09-10T12:41:37.458Z,8.17
2018-09-10T12:44:07.778Z,10.07
2018-09-10T12:46:36.556Z,5.83
2018-09-10T12:49:04.880Z,8.30
2018-09-10T12:51:33.280Z,14.00
2018-09-10T12:54:01.594Z,7.10
2018-09-10T12:56:29.914Z,5.90
2018-09-10T12:59:01.375Z,7.20
2018-09-10T13:01:29.701Z,5.30
2018-09-10T13:03:58.004Z,8.27
2018-09-10T13:06:26.320Z,10.03
2018-09-10T13:08:54.614Z,8.07
2018-09-10T13:11:23.011Z,10.07
2018-09-10T13:13:51.291Z,7.30
2018-09-10T13:16:19.662Z,11.80
2018-09-10T13:18:48.417Z,8.83
2018-09-10T13:21:16.712Z,9.40
2018-09-10T13:23:45.073Z,7.00
2018-09-10T13:26:13.405Z,8.10
2018-09-10T13:28:41.717Z,9.37
2018-09-10T13:31:10.025Z,10.70
2018-09-10T13:33:38.301Z,9.87
2018-09-10T13:36:06.709Z,5.90
2018-09-10T13:38:34.997Z,9.60
2018-09-10T13:41:03.394Z,13.53
2018-09-10T13:43:34.858Z,5.77
2018-09-10T13:46:03.292Z,5.30
2018-09-10T13:48:31.580Z,9.20
2018-09-10T13:50:59.980Z,8.20
2018-09-10T13:53:33.464Z,6.97
2018-09-10T13:56:01.733Z,7.63
2018-09-10T13:58:30.022Z,5.27
2018-09-10T14:00:58.297Z,8.80
2018-09-10T14:03:26.656Z,8.23
2018-09-10T14:05:54.948Z,10.23
2018-09-10T14:08:23.239Z,9.70
2018-09-10T14:10:51.654Z,8.10
2018-09-10T14:13:19.929Z,12.63
2018-09-10T14:15:48.271Z,9.30
2018-09-10T14:18:16.742Z,7.30
2018-09-10T14:20:47.055Z,9.57
2018-09-10T14:23:15.500Z,6.50
2018-09-10T14:25:51.085Z,7.97
2018-09-10T14:28:19.456Z,11.30
2018-09-10T14:30:47.738Z,11.60
2018-09-10T14:33:16.114Z,7.70
2018-09-10T14:35:44.450Z,6.13
2018-09-10T14:38:12.830Z,10.97
2018-09-10T14:40:41.124Z,8.33
2018-09-10T14:43:09.488Z,8.80
2018-09-10T14:45:37.760Z,16.23
2018-09-10T14:48:06.039Z,11.13
2018-09-10T14:50:34.385Z,5.43
2018-09-10T14:53:02.609Z,7.50
2018-09-10T14:55:31.005Z,12.10
2018-09-10T14:57:59.498Z,5.93
2018-09-10T15:00:28.328Z,6.63
2018-09-10T15:02:57.511Z,4.93
2018-09-10T15:05:25.881Z,9.90
2018-09-10T15:07:54.956Z,10.77
2018-09-10T15:10:23.263Z,5.77
2018-09-10T15:12:51.588Z,7.47
2018-09-10T15:15:19.869Z,9.20
2018-09-10T15:17:48.297Z,6.83
2018-09-10T15:20:16.590Z,6.13
2018-09-10T15:22:44.865Z,9.10
2018-09-10T15:25:13.165Z,11.30
2018-09-10T15:27:41.744Z,5.57
2018-09-10T15:30:10.286Z,6.40
2018-09-10T15:32:38.632Z,9.77
2018-09-10T15:35:07.000Z,8.03
2018-09-10T15:37:35.315Z,6.67
2018-09-10T15:40:03.681Z,6.33
2018-09-10T15:42:32.263Z,6.00
2018-09-10T15:45:00.538Z,6.50
2018-09-10T15:47:28.856Z,6.70
2018-09-10T15:49:57.238Z,9.80
2018-09-10T15:52:25.577Z,6.90
2018-09-10T15:54:53.894Z,8.00
2018-09-10T15:57:22.352Z,8.27
2018-09-10T15:59:50.678Z,9.63
2018-09-10T16:02:19.097Z,9.17
2018-09-10T16:04:47.580Z,6.87
2018-09-10T16:07:15.885Z,10.80
2018-09-10T16:09:44.197Z,12.67
2018-09-10T16:12:12.513Z,13.07
2018-09-10T16:14:40.916Z,13.77
2018-09-10T16:17:09.287Z,9.70
2018-09-10T16:19:37.577Z,15.80
2018-09-10T16:22:05.902Z,12.20
2018-09-10T16:24:34.310Z,8.00
2018-09-10T16:27:02.612Z,12.90
2018-09-10T16:29:30.916Z,9.47
2018-09-10T16:31:59.208Z,12.00
2018-09-10T16:34:27.510Z,9.00
2018-09-10T16:36:55.814Z,12.50
2018-09-10T16:39:24.594Z,6.47
2018-09-10T16:41:52.974Z,8.63
2018-09-10T16:44:21.359Z,12.37
2018-09-10T16:46:50.462Z,10.53
2018-09-10T16:49:18.800Z,9.17
2018-09-10T16:51:47.097Z,9.57
2018-09-10T16:54:15.554Z,12.07
2018-09-10T16:56:43.757Z,10.80
2018-09-10T16:59:12.074Z,13.50
2018-09-10T17:01:40.572Z,12.80
2018-09-10T17:04:08.937Z,8.03
2018-09-10T17:06:37.232Z,6.00
2018-09-10T17:09:07.049Z,8.20
2018-09-10T17:11:35.379Z,6.80
2018-09-10T17:14:03.707Z,7.83
2018-09-10T17:16:32.145Z,8.70
2018-09-10T17:19:00.467Z,8.23
2018-09-10T17:21:28.811Z,9.13
2018-09-10T17:23:57.132Z,7.43
2018-09-10T17:26:25.443Z,7.37
2018-09-10T17:28:53.789Z,10.83
2018-09-10T17:31:22.146Z,10.97
2018-09-10T17:33:50.486Z,10.70
2018-09-10T17:36:18.823Z,7.20
2018-09-10T17:38:47.192Z,7.17
2018-09-10T17:41:15.589Z,12.10
2018-09-10T17:43:43.964Z,13.80
2018-09-10T17:46:12.339Z,9.83
2018-09-10T17:48:40.668Z,11.80
2018-09-10T17:51:09.069Z,11.87
2018-09-10T17:53:37.409Z,9.90
2018-09-10T17:56:05.877Z,10.43
2018-09-10T17:58:34.200Z,9.40
2018-09-10T18:01:02.503Z,12.93
2018-09-10T18:03:30.775Z,7.37
2018-09-10T18:05:59.211Z,8.97
2018-09-10T18:08:27.533Z,10.87
2018-09-10T18:10:55.983Z,8.60
2018-09-10T18:13:27.372Z,7.93
2018-09-10T18:15:55.827Z,14.00
2018-09-10T18:18:24.102Z,9.10
2018-09-10T18:20:52.433Z,8.13
2018-09-10T18:23:20.739Z,8.50
2018-09-10T18:25:49.176Z,7.93
2018-09-10T18:28:17.568Z,9.43
2018-09-10T18:30:45.891Z,12.17
2018-09-10T18:33:14.494Z,7.57
2018-09-10T18:35:42.816Z,7.60
2018-09-10T18:38:11.178Z,7.87
2018-09-10T18:40:39.458Z,9.33
2018-09-10T18:43:07.748Z,6.70
2018-09-10T18:45:36.202Z,6.23
2018-09-10T18:48:04.528Z,7.97
2018-09-10T18:50:33.150Z,8.20
2018-09-10T18:53:01.469Z,9.53
2018-09-10T18:55:29.761Z,9.03
2018-09-10T18:57:58.098Z,10.33
2018-09-10T19:00:26.481Z,13.37
2018-09-10T19:02:54.782Z,7.07
2018-09-10T19:05:23.140Z,11.57
2018-09-10T19:07:51.417Z,8.63
2018-09-10T19:10:19.754Z,6.93
2018-09-10T19:12:48.248Z,9.13
2018-09-10T19:15:16.591Z,16.90
2018-09-10T19:17:44.902Z,13.30
2018-09-10T19:20:13.338Z,11.53
2018-09-10T19:22:41.656Z,14.37
2018-09-10T19:25:09.986Z,10.73
2018-09-10T19:27:38.431Z,14.57
2018-09-10T19:30:06.730Z,8.37
2018-09-10T19:32:35.000Z,6.07
2018-09-10T19:35:03.338Z,10.20
2018-09-10T19:37:31.712Z,8.63
2018-09-10T19:40:00.002Z,10.23
2018-09-10T19:42:28.332Z,7.90
2018-09-10T19:44:56.725Z,11.00
2018-09-10T19:47:25.088Z,14.27
2018-09-10T19:49:53.429Z,9.13
2018-09-10T19:52:21.791Z,7.67
2018-09-10T19:54:50.230Z,13.57
2018-09-10T19:57:18.532Z,12.90
2018-09-10T19:59:46.854Z,11.80
2018-09-10T20:02:15.118Z,8.00
2018-09-10T20:04:43.408Z,10.10
2018-09-10T20:07:11.682Z,15.43
2018-09-10T20:09:40.016Z,13.60
2018-09-10T20:12:08.272Z,9.10
2018-09-10T20:14:36.600Z,6.60
2018-09-10T20:17:05.247Z,12.30
2018-09-10T20:19:33.553Z,10.17
2018-09-10T20:22:01.908Z,12.40
2018-09-10T20:24:30.207Z,17.63
2018-09-10T20:26:58.751Z,10.00
2018-09-10T20:29:27.131Z,12.57
2018-09-10T20:31:55.523Z,9.77
2018-09-10T20:34:23.810Z,14.70
2018-09-10T20:36:52.442Z,7.43
2018-09-10T20:39:20.761Z,10.37
2018-09-10T20:41:49.096Z,10.90
2018-09-10T20:44:18.232Z,7.67
2018-09-10T20:46:46.534Z,8.97
2018-09-10T20:49:14.832Z,8.03
2018-09-10T20:51:43.132Z,6.17
2018-09-10T20:54:11.393Z,9.00
2018-09-10T20:56:39.698Z,7.97
2018-09-10T20:59:07.981Z,8.07
2018-09-10T21:01:36.330Z,10.50
2018-09-10T21:04:04.645Z,6.97
2018-09-10T21:06:32.973Z,9.03
2018-09-10T21:09:01.283Z,8.73
2018-09-10T21:11:29.681Z,10.30
2018-09-10T21:13:58.144Z,8.93
2018-09-10T21:16:26.444Z,6.97
2018-09-10T21:18:54.750Z,8.40
2018-09-10T21:21:23.074Z,7.83
2018-09-10T21:23:51.368Z,16.50
2018-09-10T21:26:19.720Z,8.67
2018-09-10T21:28:48.024Z,13.97
2018-09-10T21:31:16.408Z,13.60
2018-09-10T21:33:44.721Z,13.23
2018-09-10T21:36:13.039Z,10.23
2018-09-10T21:38:41.336Z,11.70
2018-09-10T21:41:10.352Z,8.60
2018-09-10T21:43:38.700Z,8.40
2018-09-10T21:46:07.272Z,9.20
2018-09-10T21:48:35.640Z,17.97
2018-09-10T21:51:04.016Z,11.10
2018-09-10T21:53:32.508Z,10.33
2018-09-10T21:56:00.798Z,11.17
2018-09-10T21:58:29.175Z,14.70
2018-09-10T22:00:58.386Z,20.23
2018-09-10T22:03:27.041Z,11.23
2018-09-10T22:05:55.725Z,21.73
2018-09-10T22:08:24.365Z,17.10
2018-09-10T22:10:53.115Z,18.67
2018-09-10T22:13:21.597Z,17.97
2018-09-10T22:15:49.877Z,10.47
2018-09-10T22:18:18.201Z,18.20
2018-09-10T22:20:46.537Z,13.60
2018-09-10T22:23:14.907Z,10.17
2018-09-10T22:25:43.181Z,12.07
2018-09-10T22:28:11.502Z,8.43
2018-09-10T22:30:39.789Z,12.07
2018-09-10T22:33:08.153Z,13.77
2018-09-10T22:35:36.489Z,11.70
2018-09-10T22:38:05.069Z,12.20
2018-09-10T22:40:33.451Z,12.40
2018-09-10T22:43:01.752Z,13.87
2018-09-10T22:45:30.037Z,12.30
2018-09-10T22:47:58.373Z,7.00
2018-09-10T22:50:26.633Z,7.40
2018-09-10T22:52:54.989Z,12.97
2018-09-10T22:55:23.315Z,12.30
2018-09-10T22:57:51.713Z,8.60
2018-09-10T23:00:20.033Z,11.70
2018-09-10T23:02:48.302Z,10.73
2018-09-10T23:05:16.585Z,9.37
2018-09-10T23:07:45.001Z,9.97
2018-09-10T23:10:13.313Z,14.10
2018-09-10T23:12:41.601Z,12.47
2018-09-10T23:15:10.033Z,8.90
2018-09-10T23:17:38.318Z,6.63
2018-09-10T23:20:07.074Z,7.97
2018-09-10T23:22:35.469Z,12.40
2018-09-10T23:25:03.808Z,9.83
2018-09-10T23:27:32.109Z,11.20
2018-09-10T23:30:00.430Z,10.83
2018-09-10T23:32:28.824Z,11.77
2018-09-10T23:34:57.167Z,9.53
2018-09-10T23:37:25.597Z,9.87
2018-09-10T23:39:53.896Z,11.10
2018-09-10T23:42:22.172Z,12.17
2018-09-10T23:44:50.511Z,9.67
2018-09-10T23:47:18.808Z,8.03
2018-09-10T23:49:47.088Z,9.93
2018-09-10T23:52:15.388Z,10.90
2018-09-10T23:54:43.768Z,10.13
2018-09-10T23:57:12.135Z,7.27
2018-09-10T23:59:40.437Z,9.50
